sensor_id;sensor_type;location;lat;lon;timestamp;P1;durP1;ratioP1;P2;durP2;ratioP2
19225;SDS011;9747;48.536;12.522;2023-04-28T00:00:02;1.45;;;1.35;;
19225;SDS011;9747;48.536;12.522;2023-04-28T00:02:31;1.95;;;1.40;;
19225;SDS011;9747;48.536;12.522;2023-04-28T00:05:00;1.60;;;1.50;;
19225;SDS011;9747;48.536;12.522;2023-04-28T00:07:28;1.50;;;1.40;;
19225;SDS011;9747;48.536;12.522;2023-04-28T00:09:55;1.58;;;1.48;;
19225;SDS011;9747;48.536;12.522;2023-04-28T00:12:23;1.50;;;1.40;;
19225;SDS011;9747;48.536;12.522;2023-04-28T00:14:50;1.60;;;1.50;;
19225;SDS011;9747;48.536;12.522;2023-04-28T00:17:18;1.70;;;1.63;;
19225;SDS011;9747;48.536;12.522;2023-04-28T00:19:45;1.20;;;1.20;;
19225;SDS011;9747;48.536;12.522;2023-04-28T00:22:14;1.02;;;1.02;;
19225;SDS011;9747;48.536;12.522;2023-04-28T00:24:42;2.35;;;1.60;;
19225;SDS011;9747;48.536;12.522;2023-04-28T00:27:10;1.38;;;1.38;;
19225;SDS011;9747;48.536;12.522;2023-04-28T00:29:37;1.38;;;1.20;;
19225;SDS011;9747;48.536;12.522;2023-04-28T00:32:05;1.40;;;1.40;;
19225;SDS011;9747;48.536;12.522;2023-04-28T00:34:32;1.52;;;1.45;;
19225;SDS011;9747;48.536;12.522;2023-04-28T00:37:01;1.80;;;1.70;;
19225;SDS011;9747;48.536;12.522;2023-04-28T00:39:30;1.40;;;1.30;;
19225;SDS011;9747;48.536;12.522;2023-04-28T00:41:58;1.20;;;1.20;;
19225;SDS011;9747;48.536;12.522;2023-04-28T00:44:26;1.38;;;1.38;;
19225;SDS011;9747;48.536;12.522;2023-04-28T00:46:53;1.55;;;1.45;;
19225;SDS011;9747;48.536;12.522;2023-04-28T00:49:21;1.30;;;1.27;;
19225;SDS011;9747;48.536;12.522;2023-04-28T00:51:49;1.63;;;1.55;;
19225;SDS011;9747;48.536;12.522;2023-04-28T00:54:16;1.30;;;1.30;;
19225;SDS011;9747;48.536;12.522;2023-04-28T00:56:45;1.75;;;1.40;;
19225;SDS011;9747;48.536;12.522;2023-04-28T00:59:13;1.30;;;1.30;;
19225;SDS011;9747;48.536;12.522;2023-04-28T01:01:40;1.52;;;1.42;;
19225;SDS011;9747;48.536;12.522;2023-04-28T01:04:07;1.58;;;1.50;;
19225;SDS011;9747;48.536;12.522;2023-04-28T01:06:37;1.52;;;1.42;;
19225;SDS011;9747;48.536;12.522;2023-04-28T01:09:05;1.30;;;1.30;;
19225;SDS011;9747;48.536;12.522;2023-04-28T01:11:33;1.48;;;1.38;;
19225;SDS011;9747;48.536;12.522;2023-04-28T01:14:10;1.30;;;1.30;;
19225;SDS011;9747;48.536;12.522;2023-04-28T01:16:39;1.40;;;1.40;;
19225;SDS011;9747;48.536;12.522;2023-04-28T01:19:09;2.38;;;1.50;;
19225;SDS011;9747;48.536;12.522;2023-04-28T01:21:41;1.40;;;1.30;;
19225;SDS011;9747;48.536;12.522;2023-04-28T01:24:35;1.55;;;1.45;;
19225;SDS011;9747;48.536;12.522;2023-04-28T01:27:06;1.40;;;1.40;;
19225;SDS011;9747;48.536;12.522;2023-04-28T01:29:35;1.08;;;1.08;;
19225;SDS011;9747;48.536;12.522;2023-04-28T01:32:02;1.30;;;1.30;;
19225;SDS011;9747;48.536;12.522;2023-04-28T01:34:32;1.20;;;1.20;;
19225;SDS011;9747;48.536;12.522;2023-04-28T01:36:59;1.40;;;1.30;;
19225;SDS011;9747;48.536;12.522;2023-04-28T01:39:27;1.48;;;1.40;;
19225;SDS011;9747;48.536;12.522;2023-04-28T01:41:56;1.35;;;1.30;;
19225;SDS011;9747;48.536;12.522;2023-04-28T01:44:24;1.67;;;1.65;;
19225;SDS011;9747;48.536;12.522;2023-04-28T01:46:51;1.40;;;1.30;;
19225;SDS011;9747;48.536;12.522;2023-04-28T01:49:20;1.55;;;1.45;;
19225;SDS011;9747;48.536;12.522;2023-04-28T01:51:48;2.17;;;1.33;;
19225;SDS011;9747;48.536;12.522;2023-04-28T01:54:15;1.50;;;1.40;;
19225;SDS011;9747;48.536;12.522;2023-04-28T01:56:43;1.40;;;1.30;;
19225;SDS011;9747;48.536;12.522;2023-04-28T01:59:14;1.45;;;1.35;;
19225;SDS011;9747;48.536;12.522;2023-04-28T02:01:43;1.48;;;1.38;;
19225;SDS011;9747;48.536;12.522;2023-04-28T02:04:10;1.50;;;1.50;;
19225;SDS011;9747;48.536;12.522;2023-04-28T02:06:38;1.60;;;1.50;;
19225;SDS011;9747;48.536;12.522;2023-04-28T02:09:06;1.90;;;1.52;;
19225;SDS011;9747;48.536;12.522;2023-04-28T02:11:33;1.70;;;1.60;;
19225;SDS011;9747;48.536;12.522;2023-04-28T02:14:00;1.67;;;1.50;;
19225;SDS011;9747;48.536;12.522;2023-04-28T02:16:30;1.42;;;1.42;;
19225;SDS011;9747;48.536;12.522;2023-04-28T02:18:58;1.38;;;1.38;;
19225;SDS011;9747;48.536;12.522;2023-04-28T02:21:26;1.27;;;1.27;;
19225;SDS011;9747;48.536;12.522;2023-04-28T02:23:54;1.30;;;1.30;;
19225;SDS011;9747;48.536;12.522;2023-04-28T02:26:22;1.40;;;1.40;;
19225;SDS011;9747;48.536;12.522;2023-04-28T02:28:50;1.50;;;1.40;;
19225;SDS011;9747;48.536;12.522;2023-04-28T02:31:17;1.50;;;1.45;;
19225;SDS011;9747;48.536;12.522;2023-04-28T02:33:46;1.33;;;1.23;;
19225;SDS011;9747;48.536;12.522;2023-04-28T02:36:14;1.38;;;1.38;;
19225;SDS011;9747;48.536;12.522;2023-04-28T02:38:41;1.40;;;1.40;;
19225;SDS011;9747;48.536;12.522;2023-04-28T02:41:10;1.73;;;1.48;;
19225;SDS011;9747;48.536;12.522;2023-04-28T02:43:39;1.70;;;1.60;;
19225;SDS011;9747;48.536;12.522;2023-04-28T02:46:06;1.30;;;1.30;;
19225;SDS011;9747;48.536;12.522;2023-04-28T02:48:35;1.50;;;1.40;;
19225;SDS011;9747;48.536;12.522;2023-04-28T02:51:04;1.10;;;1.10;;
19225;SDS011;9747;48.536;12.522;2023-04-28T02:53:33;1.20;;;1.20;;
19225;SDS011;9747;48.536;12.522;2023-04-28T02:56:01;1.58;;;1.48;;
19225;SDS011;9747;48.536;12.522;2023-04-28T02:58:30;1.60;;;1.50;;
19225;SDS011;9747;48.536;12.522;2023-04-28T03:00:58;1.50;;;1.40;;
19225;SDS011;9747;48.536;12.522;2023-04-28T03:03:25;1.40;;;1.30;;
19225;SDS011;9747;48.536;12.522;2023-04-28T03:05:52;1.60;;;1.50;;
19225;SDS011;9747;48.536;12.522;2023-04-28T03:08:22;1.30;;;1.30;;
19225;SDS011;9747;48.536;12.522;2023-04-28T03:10:52;1.33;;;1.33;;
19225;SDS011;9747;48.536;12.522;2023-04-28T03:13:19;1.50;;;1.40;;
19225;SDS011;9747;48.536;12.522;2023-04-28T03:15:48;1.40;;;1.40;;
19225;SDS011;9747;48.536;12.522;2023-04-28T03:18:16;1.23;;;1.20;;
19225;SDS011;9747;48.536;12.522;2023-04-28T03:20:44;1.52;;;1.42;;
19225;SDS011;9747;48.536;12.522;2023-04-28T03:23:11;1.40;;;1.40;;
19225;SDS011;9747;48.536;12.522;2023-04-28T03:25:40;1.70;;;1.60;;
19225;SDS011;9747;48.536;12.522;2023-04-28T03:28:08;1.60;;;1.50;;
19225;SDS011;9747;48.536;12.522;2023-04-28T03:30:35;1.42;;;1.42;;
19225;SDS011;9747;48.536;12.522;2023-04-28T03:33:03;1.40;;;1.40;;
19225;SDS011;9747;48.536;12.522;2023-04-28T03:35:31;1.40;;;1.40;;
19225;SDS011;9747;48.536;12.522;2023-04-28T03:37:59;1.55;;;1.38;;
19225;SDS011;9747;48.536;12.522;2023-04-28T03:40:26;1.58;;;1.48;;
19225;SDS011;9747;48.536;12.522;2023-04-28T03:43:18;3.17;;;1.50;;
19225;SDS011;9747;48.536;12.522;2023-04-28T03:46:06;1.73;;;1.42;;
19225;SDS011;9747;48.536;12.522;2023-04-28T03:48:33;1.50;;;1.40;;
19225;SDS011;9747;48.536;12.522;2023-04-28T03:51:01;1.20;;;1.20;;
19225;SDS011;9747;48.536;12.522;2023-04-28T03:53:29;1.75;;;1.30;;
19225;SDS011;9747;48.536;12.522;2023-04-28T03:55:57;1.67;;;1.50;;
19225;SDS011;9747;48.536;12.522;2023-04-28T03:58:26;1.73;;;1.60;;
19225;SDS011;9747;48.536;12.522;2023-04-28T04:00:53;1.60;;;1.50;;
19225;SDS011;9747;48.536;12.522;2023-04-28T04:03:21;1.48;;;1.40;;
19225;SDS011;9747;48.536;12.522;2023-04-28T04:05:50;1.20;;;1.20;;
19225;SDS011;9747;48.536;12.522;2023-04-28T04:08:17;1.45;;;1.45;;
19225;SDS011;9747;48.536;12.522;2023-04-28T04:10:45;3.15;;;1.38;;
19225;SDS011;9747;48.536;12.522;2023-04-28T04:13:13;1.30;;;1.30;;
19225;SDS011;9747;48.536;12.522;2023-04-28T04:15:43;1.50;;;1.40;;
19225;SDS011;9747;48.536;12.522;2023-04-28T04:18:10;1.60;;;1.50;;
19225;SDS011;9747;48.536;12.522;2023-04-28T04:20:59;3.08;;;1.60;;
19225;SDS011;9747;48.536;12.522;2023-04-28T04:23:27;3.33;;;1.90;;
19225;SDS011;9747;48.536;12.522;2023-04-28T04:25:54;1.75;;;1.65;;
19225;SDS011;9747;48.536;12.522;2023-04-28T04:28:22;4.03;;;1.50;;
19225;SDS011;9747;48.536;12.522;2023-04-28T04:30:51;2.88;;;1.63;;
19225;SDS011;9747;48.536;12.522;2023-04-28T04:33:18;3.83;;;1.52;;
19225;SDS011;9747;48.536;12.522;2023-04-28T04:35:46;3.53;;;1.70;;
19225;SDS011;9747;48.536;12.522;2023-04-28T04:38:13;2.60;;;1.60;;
19225;SDS011;9747;48.536;12.522;2023-04-28T04:40:41;3.05;;;1.63;;
19225;SDS011;9747;48.536;12.522;2023-04-28T04:43:08;1.70;;;1.60;;
19225;SDS011;9747;48.536;12.522;2023-04-28T04:45:43;2.72;;;1.80;;
19225;SDS011;9747;48.536;12.522;2023-04-28T04:48:13;3.28;;;1.70;;
19225;SDS011;9747;48.536;12.522;2023-04-28T04:50:41;1.65;;;1.55;;
19225;SDS011;9747;48.536;12.522;2023-04-28T04:53:09;2.70;;;1.80;;
19225;SDS011;9747;48.536;12.522;2023-04-28T04:55:37;1.77;;;1.67;;
19225;SDS011;9747;48.536;12.522;2023-04-28T04:58:07;3.90;;;1.80;;
19225;SDS011;9747;48.536;12.522;2023-04-28T05:00:56;2.50;;;1.85;;
19225;SDS011;9747;48.536;12.522;2023-04-28T05:03:24;1.70;;;1.60;;
19225;SDS011;9747;48.536;12.522;2023-04-28T05:05:52;2.70;;;1.77;;
19225;SDS011;9747;48.536;12.522;2023-04-28T05:08:30;1.80;;;1.60;;
19225;SDS011;9747;48.536;12.522;2023-04-28T05:10:58;2.45;;;1.70;;
19225;SDS011;9747;48.536;12.522;2023-04-28T05:13:25;3.20;;;1.70;;
19225;SDS011;9747;48.536;12.522;2023-04-28T05:16:00;3.20;;;1.70;;
19225;SDS011;9747;48.536;12.522;2023-04-28T05:18:56;3.05;;;1.70;;
19225;SDS011;9747;48.536;12.522;2023-04-28T05:21:23;2.00;;;1.70;;
19225;SDS011;9747;48.536;12.522;2023-04-28T05:23:50;2.35;;;2.00;;
19225;SDS011;9747;48.536;12.522;2023-04-28T05:26:18;4.50;;;1.67;;
19225;SDS011;9747;48.536;12.522;2023-04-28T05:28:45;1.73;;;1.52;;
19225;SDS011;9747;48.536;12.522;2023-04-28T05:31:13;2.42;;;1.70;;
19225;SDS011;9747;48.536;12.522;2023-04-28T05:33:41;4.15;;;1.75;;
19225;SDS011;9747;48.536;12.522;2023-04-28T05:36:10;3.15;;;1.90;;
19225;SDS011;9747;48.536;12.522;2023-04-28T05:38:40;3.83;;;1.92;;
19225;SDS011;9747;48.536;12.522;2023-04-28T05:41:08;2.88;;;2.00;;
19225;SDS011;9747;48.536;12.522;2023-04-28T05:43:38;3.58;;;2.08;;
19225;SDS011;9747;48.536;12.522;2023-04-28T05:46:05;2.15;;;1.60;;
19225;SDS011;9747;48.536;12.522;2023-04-28T05:48:33;2.45;;;2.25;;
19225;SDS011;9747;48.536;12.522;2023-04-28T05:51:01;2.72;;;2.00;;
19225;SDS011;9747;48.536;12.522;2023-04-28T05:53:30;2.28;;;2.00;;
19225;SDS011;9747;48.536;12.522;2023-04-28T05:55:57;4.90;;;2.30;;
19225;SDS011;9747;48.536;12.522;2023-04-28T05:58:25;2.50;;;2.15;;
19225;SDS011;9747;48.536;12.522;2023-04-28T06:00:54;3.83;;;2.20;;
19225;SDS011;9747;48.536;12.522;2023-04-28T06:03:21;3.25;;;1.85;;
19225;SDS011;9747;48.536;12.522;2023-04-28T06:05:49;2.55;;;2.35;;
19225;SDS011;9747;48.536;12.522;2023-04-28T06:08:18;2.05;;;1.92;;
19225;SDS011;9747;48.536;12.522;2023-04-28T06:10:46;6.25;;;2.42;;
19225;SDS011;9747;48.536;12.522;2023-04-28T06:13:14;4.43;;;2.20;;
19225;SDS011;9747;48.536;12.522;2023-04-28T06:15:41;2.55;;;2.30;;
19225;SDS011;9747;48.536;12.522;2023-04-28T06:18:09;2.30;;;2.10;;
19225;SDS011;9747;48.536;12.522;2023-04-28T06:20:37;3.60;;;2.30;;
19225;SDS011;9747;48.536;12.522;2023-04-28T06:23:04;2.75;;;2.30;;
19225;SDS011;9747;48.536;12.522;2023-04-28T06:25:33;3.08;;;2.33;;
19225;SDS011;9747;48.536;12.522;2023-04-28T06:28:03;2.35;;;1.85;;
19225;SDS011;9747;48.536;12.522;2023-04-28T06:30:32;4.15;;;2.03;;
19225;SDS011;9747;48.536;12.522;2023-04-28T06:33:02;4.38;;;2.15;;
19225;SDS011;9747;48.536;12.522;2023-04-28T06:35:29;2.53;;;2.30;;
19225;SDS011;9747;48.536;12.522;2023-04-28T06:37:59;3.08;;;2.20;;
19225;SDS011;9747;48.536;12.522;2023-04-28T06:40:27;2.78;;;1.92;;
19225;SDS011;9747;48.536;12.522;2023-04-28T06:42:56;2.05;;;1.88;;
19225;SDS011;9747;48.536;12.522;2023-04-28T06:45:34;2.50;;;2.08;;
19225;SDS011;9747;48.536;12.522;2023-04-28T06:48:02;2.28;;;2.05;;
19225;SDS011;9747;48.536;12.522;2023-04-28T06:50:30;3.00;;;2.20;;
19225;SDS011;9747;48.536;12.522;2023-04-28T06:52:57;3.70;;;2.25;;
19225;SDS011;9747;48.536;12.522;2023-04-28T06:55:28;3.42;;;1.98;;
19225;SDS011;9747;48.536;12.522;2023-04-28T06:57:56;2.80;;;2.10;;
19225;SDS011;9747;48.536;12.522;2023-04-28T07:00:24;2.63;;;1.88;;
19225;SDS011;9747;48.536;12.522;2023-04-28T07:02:53;2.42;;;2.00;;
19225;SDS011;9747;48.536;12.522;2023-04-28T07:05:20;2.30;;;2.10;;
19225;SDS011;9747;48.536;12.522;2023-04-28T07:07:48;2.63;;;1.90;;
19225;SDS011;9747;48.536;12.522;2023-04-28T07:10:15;2.78;;;2.08;;
19225;SDS011;9747;48.536;12.522;2023-04-28T07:12:43;3.58;;;2.13;;
19225;SDS011;9747;48.536;12.522;2023-04-28T07:15:10;2.17;;;1.98;;
19225;SDS011;9747;48.536;12.522;2023-04-28T07:17:38;2.78;;;2.40;;
19225;SDS011;9747;48.536;12.522;2023-04-28T07:20:07;2.00;;;1.90;;
19225;SDS011;9747;48.536;12.522;2023-04-28T07:22:35;3.58;;;2.00;;
19225;SDS011;9747;48.536;12.522;2023-04-28T07:25:03;3.15;;;2.17;;
19225;SDS011;9747;48.536;12.522;2023-04-28T07:27:31;4.90;;;2.20;;
19225;SDS011;9747;48.536;12.522;2023-04-28T07:29:58;3.25;;;2.30;;
19225;SDS011;9747;48.536;12.522;2023-04-28T07:32:26;3.55;;;2.30;;
19225;SDS011;9747;48.536;12.522;2023-04-28T07:34:53;3.83;;;2.45;;
19225;SDS011;9747;48.536;12.522;2023-04-28T07:37:22;2.97;;;2.30;;
19225;SDS011;9747;48.536;12.522;2023-04-28T07:39:49;3.83;;;2.20;;
19225;SDS011;9747;48.536;12.522;2023-04-28T07:42:17;4.63;;;2.33;;
19225;SDS011;9747;48.536;12.522;2023-04-28T07:44:44;2.65;;;2.30;;
19225;SDS011;9747;48.536;12.522;2023-04-28T07:47:12;4.63;;;2.45;;
19225;SDS011;9747;48.536;12.522;2023-04-28T07:49:39;3.83;;;2.65;;
19225;SDS011;9747;48.536;12.522;2023-04-28T07:52:06;3.58;;;2.25;;
19225;SDS011;9747;48.536;12.522;2023-04-28T07:54:35;4.72;;;2.25;;
19225;SDS011;9747;48.536;12.522;2023-04-28T07:57:02;4.60;;;2.15;;
19225;SDS011;9747;48.536;12.522;2023-04-28T07:59:30;3.58;;;2.47;;
19225;SDS011;9747;48.536;12.522;2023-04-28T08:01:58;3.78;;;2.35;;
19225;SDS011;9747;48.536;12.522;2023-04-28T08:04:25;4.20;;;2.10;;
19225;SDS011;9747;48.536;12.522;2023-04-28T08:06:54;5.40;;;2.10;;
19225;SDS011;9747;48.536;12.522;2023-04-28T08:09:21;4.22;;;2.40;;
19225;SDS011;9747;48.536;12.522;2023-04-28T08:11:50;2.35;;;2.15;;
19225;SDS011;9747;48.536;12.522;2023-04-28T08:14:18;4.07;;;2.30;;
19225;SDS011;9747;48.536;12.522;2023-04-28T08:16:46;2.30;;;2.08;;
19225;SDS011;9747;48.536;12.522;2023-04-28T08:19:14;3.83;;;2.10;;
19225;SDS011;9747;48.536;12.522;2023-04-28T08:21:42;2.72;;;2.17;;
19225;SDS011;9747;48.536;12.522;2023-04-28T08:24:09;2.60;;;2.40;;
19225;SDS011;9747;48.536;12.522;2023-04-28T08:26:37;4.45;;;2.42;;
19225;SDS011;9747;48.536;12.522;2023-04-28T08:29:06;2.80;;;2.30;;
19225;SDS011;9747;48.536;12.522;2023-04-28T08:31:33;2.72;;;2.30;;
19225;SDS011;9747;48.536;12.522;2023-04-28T08:34:01;2.50;;;2.30;;
19225;SDS011;9747;48.536;12.522;2023-04-28T08:36:28;2.65;;;2.03;;
19225;SDS011;9747;48.536;12.522;2023-04-28T08:38:57;2.15;;;2.03;;
19225;SDS011;9747;48.536;12.522;2023-04-28T08:41:27;2.35;;;2.10;;
19225;SDS011;9747;48.536;12.522;2023-04-28T08:43:57;3.13;;;2.28;;
19225;SDS011;9747;48.536;12.522;2023-04-28T08:46:25;2.60;;;1.92;;
19225;SDS011;9747;48.536;12.522;2023-04-28T08:48:55;3.33;;;1.85;;
19225;SDS011;9747;48.536;12.522;2023-04-28T08:51:27;2.55;;;2.00;;
19225;SDS011;9747;48.536;12.522;2023-04-28T08:54:01;2.83;;;2.20;;
19225;SDS011;9747;48.536;12.522;2023-04-28T08:56:31;2.03;;;1.92;;
19225;SDS011;9747;48.536;12.522;2023-04-28T08:59:00;2.50;;;2.30;;
19225;SDS011;9747;48.536;12.522;2023-04-28T09:01:30;2.35;;;2.15;;
19225;SDS011;9747;48.536;12.522;2023-04-28T09:03:59;2.38;;;2.13;;
19225;SDS011;9747;48.536;12.522;2023-04-28T09:06:30;2.22;;;2.00;;
19225;SDS011;9747;48.536;12.522;2023-04-28T09:11:51;2.92;;;2.25;;
19225;SDS011;9747;48.536;12.522;2023-04-28T09:14:19;2.20;;;1.80;;
19225;SDS011;9747;48.536;12.522;2023-04-28T09:16:48;2.60;;;2.10;;
19225;SDS011;9747;48.536;12.522;2023-04-28T09:19:16;1.90;;;1.80;;
19225;SDS011;9747;48.536;12.522;2023-04-28T09:21:45;2.30;;;2.10;;
19225;SDS011;9747;48.536;12.522;2023-04-28T09:24:26;2.65;;;2.22;;
19225;SDS011;9747;48.536;12.522;2023-04-28T09:26:58;2.67;;;1.88;;
19225;SDS011;9747;48.536;12.522;2023-04-28T09:29:26;3.78;;;2.10;;
19225;SDS011;9747;48.536;12.522;2023-04-28T09:31:56;2.53;;;2.30;;
19225;SDS011;9747;48.536;12.522;2023-04-28T09:34:42;1.80;;;1.70;;
19225;SDS011;9747;48.536;12.522;2023-04-28T09:37:14;2.65;;;2.13;;
19225;SDS011;9747;48.536;12.522;2023-04-28T09:39:44;2.17;;;1.95;;
19225;SDS011;9747;48.536;12.522;2023-04-28T09:44:58;2.15;;;1.95;;
19225;SDS011;9747;48.536;12.522;2023-04-28T09:47:28;1.60;;;1.50;;
19225;SDS011;9747;48.536;12.522;2023-04-28T09:49:59;2.90;;;2.15;;
19225;SDS011;9747;48.536;12.522;2023-04-28T09:52:28;2.55;;;1.80;;
19225;SDS011;9747;48.536;12.522;2023-04-28T09:54:55;1.90;;;1.70;;
19225;SDS011;9747;48.536;12.522;2023-04-28T09:57:23;1.92;;;1.70;;
19225;SDS011;9747;48.536;12.522;2023-04-28T09:59:51;2.08;;;1.80;;
19225;SDS011;9747;48.536;12.522;2023-04-28T10:02:20;1.85;;;1.75;;
19225;SDS011;9747;48.536;12.522;2023-04-28T10:04:49;1.92;;;1.83;;
19225;SDS011;9747;48.536;12.522;2023-04-28T10:07:17;2.08;;;1.70;;
19225;SDS011;9747;48.536;12.522;2023-04-28T10:09:46;1.98;;;1.73;;
19225;SDS011;9747;48.536;12.522;2023-04-28T10:12:15;1.80;;;1.70;;
19225;SDS011;9747;48.536;12.522;2023-04-28T10:14:43;1.98;;;1.88;;
19225;SDS011;9747;48.536;12.522;2023-04-28T10:17:12;1.80;;;1.70;;
19225;SDS011;9747;48.536;12.522;2023-04-28T10:19:40;2.05;;;1.83;;
19225;SDS011;9747;48.536;12.522;2023-04-28T10:22:13;2.00;;;1.80;;
19225;SDS011;9747;48.536;12.522;2023-04-28T10:25:05;1.90;;;1.80;;
19225;SDS011;9747;48.536;12.522;2023-04-28T10:27:46;1.90;;;1.80;;
19225;SDS011;9747;48.536;12.522;2023-04-28T10:30:15;1.63;;;1.50;;
19225;SDS011;9747;48.536;12.522;2023-04-28T10:32:44;1.65;;;1.55;;
19225;SDS011;9747;48.536;12.522;2023-04-28T10:38:11;1.80;;;1.70;;
19225;SDS011;9747;48.536;12.522;2023-04-28T10:40:40;1.85;;;1.75;;
19225;SDS011;9747;48.536;12.522;2023-04-28T10:43:09;1.73;;;1.63;;
19225;SDS011;9747;48.536;12.522;2023-04-28T10:45:57;2.10;;;1.73;;
19225;SDS011;9747;48.536;12.522;2023-04-28T10:48:51;1.80;;;1.70;;
19225;SDS011;9747;48.536;12.522;2023-04-28T10:51:23;1.63;;;1.52;;
19225;SDS011;9747;48.536;12.522;2023-04-28T10:54:09;1.80;;;1.70;;
19225;SDS011;9747;48.536;12.522;2023-04-28T10:59:43;2.05;;;1.60;;
19225;SDS011;9747;48.536;12.522;2023-04-28T11:05:15;1.80;;;1.70;;
19225;SDS011;9747;48.536;12.522;2023-04-28T11:11:14;1.63;;;1.52;;
19225;SDS011;9747;48.536;12.522;2023-04-28T11:13:45;1.40;;;1.40;;
19225;SDS011;9747;48.536;12.522;2023-04-28T11:16:13;1.75;;;1.65;;
19225;SDS011;9747;48.536;12.522;2023-04-28T11:18:47;1.70;;;1.60;;
19225;SDS011;9747;48.536;12.522;2023-04-28T11:21:21;1.67;;;1.58;;
19225;SDS011;9747;48.536;12.522;2023-04-28T11:23:50;1.67;;;1.58;;
19225;SDS011;9747;48.536;12.522;2023-04-28T11:26:19;1.88;;;1.70;;
19225;SDS011;9747;48.536;12.522;2023-04-28T11:28:48;1.67;;;1.58;;
19225;SDS011;9747;48.536;12.522;2023-04-28T11:31:17;1.90;;;1.80;;
19225;SDS011;9747;48.536;12.522;2023-04-28T11:33:52;2.15;;;1.70;;
19225;SDS011;9747;48.536;12.522;2023-04-28T11:36:30;1.45;;;1.35;;
19225;SDS011;9747;48.536;12.522;2023-04-28T11:39:00;2.25;;;1.83;;
19225;SDS011;9747;48.536;12.522;2023-04-28T11:41:33;1.60;;;1.52;;
19225;SDS011;9747;48.536;12.522;2023-04-28T11:44:08;1.50;;;1.50;;
19225;SDS011;9747;48.536;12.522;2023-04-28T11:46:43;1.58;;;1.58;;
19225;SDS011;9747;48.536;12.522;2023-04-28T11:49:14;1.60;;;1.50;;
19225;SDS011;9747;48.536;12.522;2023-04-28T11:51:43;1.77;;;1.60;;
19225;SDS011;9747;48.536;12.522;2023-04-28T11:54:13;1.83;;;1.70;;
19225;SDS011;9747;48.536;12.522;2023-04-28T11:56:46;1.75;;;1.50;;
19225;SDS011;9747;48.536;12.522;2023-04-28T11:59:14;2.15;;;1.70;;
19225;SDS011;9747;48.536;12.522;2023-04-28T12:01:45;1.92;;;1.80;;
19225;SDS011;9747;48.536;12.522;2023-04-28T12:04:25;1.73;;;1.52;;
19225;SDS011;9747;48.536;12.522;2023-04-28T12:06:58;3.05;;;1.83;;
19225;SDS011;9747;48.536;12.522;2023-04-28T12:09:27;3.50;;;1.90;;
19225;SDS011;9747;48.536;12.522;2023-04-28T12:11:56;3.17;;;2.05;;
19225;SDS011;9747;48.536;12.522;2023-04-28T12:14:26;2.28;;;1.88;;
19225;SDS011;9747;48.536;12.522;2023-04-28T12:16:54;3.15;;;1.98;;
19225;SDS011;9747;48.536;12.522;2023-04-28T12:19:22;2.28;;;2.08;;
19225;SDS011;9747;48.536;12.522;2023-04-28T12:21:59;4.28;;;2.40;;
19225;SDS011;9747;48.536;12.522;2023-04-28T12:24:29;14.38;;;5.60;;
19225;SDS011;9747;48.536;12.522;2023-04-28T12:27:14;11.02;;;4.70;;
19225;SDS011;9747;48.536;12.522;2023-04-28T12:29:45;4.80;;;3.08;;
19225;SDS011;9747;48.536;12.522;2023-04-28T12:32:13;4.05;;;2.50;;
19225;SDS011;9747;48.536;12.522;2023-04-28T12:34:43;4.75;;;2.40;;
19225;SDS011;9747;48.536;12.522;2023-04-28T12:37:11;4.10;;;2.17;;
19225;SDS011;9747;48.536;12.522;2023-04-28T12:39:39;5.30;;;2.60;;
19225;SDS011;9747;48.536;12.522;2023-04-28T12:42:07;3.92;;;2.25;;
19225;SDS011;9747;48.536;12.522;2023-04-28T12:44:36;4.38;;;2.30;;
19225;SDS011;9747;48.536;12.522;2023-04-28T12:47:05;5.22;;;2.20;;
19225;SDS011;9747;48.536;12.522;2023-04-28T12:49:34;4.85;;;2.72;;
19225;SDS011;9747;48.536;12.522;2023-04-28T12:52:02;13.82;;;12.40;;
19225;SDS011;9747;48.536;12.522;2023-04-28T12:54:31;5.07;;;4.43;;
19225;SDS011;9747;48.536;12.522;2023-04-28T12:56:58;5.53;;;4.30;;
19225;SDS011;9747;48.536;12.522;2023-04-28T12:59:26;5.38;;;4.18;;
19225;SDS011;9747;48.536;12.522;2023-04-28T13:01:55;5.97;;;3.83;;
19225;SDS011;9747;48.536;12.522;2023-04-28T13:04:22;4.53;;;3.50;;
19225;SDS011;9747;48.536;12.522;2023-04-28T13:06:50;4.40;;;3.50;;
19225;SDS011;9747;48.536;12.522;2023-04-28T13:09:18;3.83;;;3.08;;
19225;SDS011;9747;48.536;12.522;2023-04-28T13:11:46;5.50;;;3.00;;
19225;SDS011;9747;48.536;12.522;2023-04-28T13:14:13;3.38;;;2.80;;
19225;SDS011;9747;48.536;12.522;2023-04-28T13:16:40;2.60;;;2.40;;
19225;SDS011;9747;48.536;12.522;2023-04-28T13:19:09;2.42;;;2.13;;
19225;SDS011;9747;48.536;12.522;2023-04-28T13:21:38;5.78;;;2.53;;
19225;SDS011;9747;48.536;12.522;2023-04-28T13:24:06;2.38;;;2.15;;
19225;SDS011;9747;48.536;12.522;2023-04-28T13:26:33;2.70;;;2.38;;
19225;SDS011;9747;48.536;12.522;2023-04-28T13:29:01;2.20;;;2.00;;
19225;SDS011;9747;48.536;12.522;2023-04-28T13:31:29;2.40;;;2.17;;
19225;SDS011;9747;48.536;12.522;2023-04-28T13:33:57;4.32;;;2.50;;
19225;SDS011;9747;48.536;12.522;2023-04-28T13:36:27;4.05;;;2.30;;
19225;SDS011;9747;48.536;12.522;2023-04-28T13:38:54;3.15;;;2.17;;
19225;SDS011;9747;48.536;12.522;2023-04-28T13:41:22;2.95;;;2.10;;
19225;SDS011;9747;48.536;12.522;2023-04-28T13:43:49;2.97;;;2.08;;
19225;SDS011;9747;48.536;12.522;2023-04-28T13:46:17;2.55;;;2.17;;
19225;SDS011;9747;48.536;12.522;2023-04-28T13:48:45;3.55;;;2.30;;
19225;SDS011;9747;48.536;12.522;2023-04-28T13:51:12;3.25;;;2.00;;
19225;SDS011;9747;48.536;12.522;2023-04-28T13:53:41;2.92;;;2.00;;
19225;SDS011;9747;48.536;12.522;2023-04-28T13:56:08;4.38;;;2.72;;
19225;SDS011;9747;48.536;12.522;2023-04-28T13:58:36;4.25;;;3.03;;
19225;SDS011;9747;48.536;12.522;2023-04-28T14:01:04;3.65;;;3.35;;
19225;SDS011;9747;48.536;12.522;2023-04-28T14:03:31;4.38;;;3.85;;
19225;SDS011;9747;48.536;12.522;2023-04-28T14:06:00;4.00;;;3.58;;
19225;SDS011;9747;48.536;12.522;2023-04-28T14:08:28;3.97;;;3.20;;
19225;SDS011;9747;48.536;12.522;2023-04-28T14:10:57;5.85;;;3.10;;
19225;SDS011;9747;48.536;12.522;2023-04-28T14:13:25;2.70;;;2.50;;
19225;SDS011;9747;48.536;12.522;2023-04-28T14:15:53;3.28;;;2.20;;
19225;SDS011;9747;48.536;12.522;2023-04-28T14:18:22;5.25;;;2.28;;
19225;SDS011;9747;48.536;12.522;2023-04-28T14:20:49;2.30;;;2.20;;
19225;SDS011;9747;48.536;12.522;2023-04-28T14:23:18;2.50;;;2.35;;
19225;SDS011;9747;48.536;12.522;2023-04-28T14:25:46;2.58;;;2.17;;
19225;SDS011;9747;48.536;12.522;2023-04-28T14:28:15;2.40;;;2.20;;
19225;SDS011;9747;48.536;12.522;2023-04-28T14:30:43;2.45;;;2.35;;
19225;SDS011;9747;48.536;12.522;2023-04-28T14:33:10;3.33;;;2.30;;
19225;SDS011;9747;48.536;12.522;2023-04-28T14:35:38;2.85;;;2.10;;
19225;SDS011;9747;48.536;12.522;2023-04-28T14:38:06;2.25;;;2.10;;
19225;SDS011;9747;48.536;12.522;2023-04-28T14:40:33;3.22;;;1.98;;
19225;SDS011;9747;48.536;12.522;2023-04-28T14:43:00;2.28;;;2.03;;
19225;SDS011;9747;48.536;12.522;2023-04-28T14:45:29;1.85;;;1.70;;
19225;SDS011;9747;48.536;12.522;2023-04-28T14:47:56;3.30;;;1.50;;
19225;SDS011;9747;48.536;12.522;2023-04-28T14:50:24;1.77;;;1.65;;
19225;SDS011;9747;48.536;12.522;2023-04-28T14:52:51;2.22;;;1.85;;
19225;SDS011;9747;48.536;12.522;2023-04-28T14:55:19;2.30;;;2.00;;
19225;SDS011;9747;48.536;12.522;2023-04-28T14:57:46;1.95;;;1.60;;
19225;SDS011;9747;48.536;12.522;2023-04-28T15:00:15;3.10;;;1.70;;
19225;SDS011;9747;48.536;12.522;2023-04-28T15:02:44;5.13;;;1.70;;
19225;SDS011;9747;48.536;12.522;2023-04-28T15:05:12;2.88;;;1.95;;
19225;SDS011;9747;48.536;12.522;2023-04-28T15:07:40;2.53;;;1.63;;
19225;SDS011;9747;48.536;12.522;2023-04-28T15:10:07;4.07;;;1.60;;
19225;SDS011;9747;48.536;12.522;2023-04-28T15:12:35;1.70;;;1.60;;
19225;SDS011;9747;48.536;12.522;2023-04-28T15:15:02;1.65;;;1.55;;
19225;SDS011;9747;48.536;12.522;2023-04-28T15:17:30;1.38;;;1.38;;